Time;durP1;ratioP1;P1;durP2;ratioP2;P2;SDS_P1;SDS_P2;PMS_P1;PMS_P2;Temp;Humidity;BMP_temperature;BMP_pressure;BME280_temperature;BME280_humidity;BME280_pressure;Samples;Min_cycle;Max_cycle;Signal;HPM_P1;HPM_P2
2024/04/06 00:00:54;;;;;;;2.70;2.10;;;;;;;3.82;100.00;99651.47;4852204;29;20416;-79
2024/04/06 00:03:22;;;;;;;4.13;2.10;;;;;;;3.90;100.00;99647.31;4900102;29;20060;-78
2024/04/06 00:05:49;;;;;;;5.03;2.70;;;;;;;4.02;100.00;99648.16;4866195;29;20163;-79
2024/04/06 00:08:15;;;;;;;3.07;2.47;;;;;;;3.93;100.00;99654.13;4900400;29;20056;-79
2024/04/06 00:10:41;;;;;;;3.97;2.20;;;;;;;3.87;100.00;99646.72;4878745;29;20131;-77
2024/04/06 00:13:11;;;;;;;3.27;2.23;;;;;;;3.78;100.00;99650.88;4857081;29;20060;-79
2024/04/06 00:15:38;;;;;;;6.37;2.33;;;;;;;3.69;100.00;99646.28;4912774;29;20141;-80
2024/04/06 00:18:05;;;;;;;2.97;2.27;;;;;;;3.78;100.00;99647.41;4897146;29;20077;-80
2024/04/06 00:20:34;;;;;;;4.90;2.63;;;;;;;3.79;100.00;99638.56;4912702;29;20067;-80
2024/04/06 00:23:05;;;;;;;5.97;2.70;;;;;;;3.94;100.00;99640.88;4897588;29;20386;-83
2024/04/06 00:25:32;;;;;;;4.93;2.60;;;;;;;3.98;100.00;99644.13;4879237;29;20590;-81
2024/04/06 00:28:02;;;;;;;2.67;2.20;;;;;;;4.16;100.00;99643.53;4894447;29;20057;-81
2024/04/06 00:30:29;;;;;;;4.60;2.83;;;;;;;4.02;100.00;99637.66;4864524;29;20499;-82
2024/04/06 00:32:56;;;;;;;3.70;2.30;;;;;;;4.00;100.00;99639.59;4896049;29;20056;-81
2024/04/06 00:35:24;;;;;;;5.23;2.63;;;;;;;3.98;100.00;99639.72;4883967;29;20053;-81
2024/04/06 00:37:55;;;;;;;3.27;2.40;;;;;;;3.93;100.00;99628.69;4917487;29;20127;-80
2024/04/06 00:40:23;;;;;;;3.72;2.50;;;;;;;4.05;100.00;99624.28;4901011;29;20198;-80
2024/04/06 00:42:51;;;;;;;6.60;2.97;;;;;;;3.92;100.00;99616.50;4955790;28;20072;-82
2024/04/06 00:45:18;;;;;;;4.33;2.73;;;;;;;3.93;100.00;99615.56;4984485;28;20076;-81
2024/04/06 00:47:44;;;;;;;4.57;3.13;;;;;;;3.88;100.00;99620.31;4980604;28;20088;-79
2024/04/06 00:50:11;;;;;;;6.73;3.00;;;;;;;3.75;100.00;99618.75;4949187;28;20543;-78
2024/04/06 00:52:38;;;;;;;4.53;2.70;;;;;;;3.77;100.00;99609.78;4961084;28;20498;-79
2024/04/06 00:55:08;;;;;;;6.93;2.60;;;;;;;3.74;100.00;99609.19;4977231;28;20592;-79
2024/04/06 00:57:39;;;;;;;3.67;2.80;;;;;;;3.77;100.00;99604.53;4961107;28;20113;-79
2024/04/06 01:00:08;;;;;;;3.63;2.67;;;;;;;3.73;100.00;99604.88;4941536;28;20051;-79
2024/04/06 01:02:34;;;;;;;4.30;2.60;;;;;;;3.56;100.00;99598.28;4957703;28;20166;-79
2024/04/06 01:05:03;;;;;;;5.60;2.63;;;;;;;3.71;100.00;99602.38;4910273;29;20059;-78
2024/04/06 01:07:29;;;;;;;4.90;2.90;;;;;;;3.67;100.00;99592.22;4921271;29;20080;-76
2024/04/06 01:09:55;;;;;;;4.80;2.93;;;;;;;3.63;100.00;99602.09;4875122;29;20052;-76
2024/04/06 01:12:23;;;;;;;4.67;3.20;;;;;;;3.63;100.00;99591.59;4887375;29;20052;-77
2024/04/06 01:14:50;;;;;;;5.03;3.00;;;;;;;3.71;100.00;99585.78;4901894;29;20067;-77
2024/04/06 01:17:16;;;;;;;4.60;3.00;;;;;;;3.67;100.00;99587.81;4900891;29;20060;-77
2024/04/06 01:19:44;;;;;;;4.43;2.80;;;;;;;3.75;100.00;99585.44;4918266;29;20055;-76
2024/04/06 01:22:10;;;;;;;5.07;2.90;;;;;;;3.63;100.00;99582.91;4904101;29;20055;-77
2024/04/06 01:24:36;;;;;;;5.23;3.27;;;;;;;3.56;100.00;99579.06;4913131;29;20113;-77
2024/04/06 01:27:02;;;;;;;3.60;2.50;;;;;;;3.73;100.00;99570.75;4906784;28;20062;-78
2024/04/06 01:29:30;;;;;;;4.17;2.40;;;;;;;3.68;100.00;99573.72;4927811;28;20109;-79
2024/04/06 01:31:56;;;;;;;4.07;2.70;;;;;;;3.66;100.00;99572.19;4925882;28;20152;-78
2024/04/06 01:34:22;;;;;;;6.70;2.50;;;;;;;3.56;100.00;99573.81;4928718;28;20061;-78
2024/04/06 01:36:49;;;;;;;5.73;3.10;;;;;;;3.65;100.00;99583.63;4976436;28;20496;-79
2024/04/06 01:39:15;;;;;;;4.93;2.60;;;;;;;3.76;100.00;99573.13;4976411;28;20089;-79
2024/04/06 01:41:47;;;;;;;4.03;2.77;;;;;;;3.96;100.00;99575.06;4945074;28;20050;-81
2024/04/06 01:44:13;;;;;;;;;;;;;;;4.11;100.00;99572.09;4973965;28;20050;-80
2024/04/06 01:46:39;;;;;;;4.83;2.80;;;;;;;3.92;100.00;99581.53;4974616;28;20076;-80
2024/04/06 01:49:08;;;;;;;5.20;3.20;;;;;;;3.89;100.00;99574.69;4992500;28;20064;-81
2024/04/06 01:51:34;;;;;;;3.70;2.67;;;;;;;3.87;100.00;99571.38;4991747;28;20042;-78
2024/04/06 01:53:59;;;;;;;7.33;2.93;;;;;;;3.75;100.00;99581.97;4999516;28;20127;-78
2024/04/06 01:56:26;;;;;;;3.33;2.50;;;;;;;3.87;100.00;99565.28;4996441;28;20042;-77
2024/04/06 01:58:52;;;;;;;2.70;2.30;;;;;;;3.90;100.00;99571.13;4980246;28;20041;-77
2024/04/06 02:01:21;;;;;;;3.83;2.80;;;;;;;4.18;100.00;99573.28;4979964;28;20377;-77
2024/04/06 02:03:48;;;;;;;2.97;2.37;;;;;;;4.08;100.00;99567.09;4996397;28;20125;-77
2024/04/06 02:06:17;;;;;;;6.27;3.30;;;;;;;4.08;100.00;99582.00;4964263;28;20077;-76
2024/04/06 02:08:45;;;;;;;4.53;2.77;;;;;;;4.07;100.00;99569.81;4980127;28;20377;-77
2024/04/06 02:11:12;;;;;;;3.43;2.67;;;;;;;3.91;100.00;99559.66;4995989;28;20049;-77
2024/04/06 02:13:39;;;;;;;4.50;2.80;;;;;;;3.86;100.00;99561.81;4979651;28;20046;-77
2024/04/06 02:16:05;;;;;;;6.33;3.13;;;;;;;3.78;100.00;99558.09;4963427;28;20068;-81
2024/04/06 02:18:34;;;;;;;4.53;3.43;;;;;;;3.70;100.00;99550.81;4994971;28;20054;-81
2024/04/06 02:21:23;;;;;;;4.60;2.80;;;;;;;3.99;100.00;99532.78;4973052;28;20408;-79
2024/04/06 02:23:50;;;;;;;7.23;3.10;;;;;;;4.02;100.00;99537.81;4903392;29;20059;-77
2024/04/06 02:26:18;;;;;;;4.57;3.00;;;;;;;4.12;100.00;99533.53;4903296;29;20056;-76
2024/04/06 02:28:44;;;;;;;5.67;3.20;;;;;;;4.12;100.00;99536.97;4914714;29;20066;-79
2024/04/06 02:31:10;;;;;;;5.13;3.60;;;;;;;4.06;100.00;99539.25;4898454;29;20060;-75
2024/04/06 02:33:43;;;;;;;4.60;3.20;;;;;;;4.25;100.00;99524.56;4883078;29;20550;-75
2024/04/06 02:36:08;;;;;;;6.70;3.30;;;;;;;4.02;100.00;99537.81;4867785;29;20378;-78
2024/04/06 02:38:34;;;;;;;4.83;3.60;;;;;;;3.95;100.00;99526.94;4868640;29;20063;-77
2024/04/06 02:41:00;;;;;;;5.87;3.93;;;;;;;3.87;100.00;99529.34;4869272;29;20452;-78
2024/04/06 02:43:26;;;;;;;5.20;3.50;;;;;;;3.89;100.00;99522.16;4883379;29;20146;-79
2024/04/06 02:45:52;;;;;;;7.87;3.70;;;;;;;4.11;100.00;99532.69;4883329;29;20052;-78
2024/04/06 02:48:21;;;;;;;8.03;4.20;;;;;;;4.02;100.00;99522.03;4864539;29;20087;-78
2024/04/06 02:50:47;;;;;;;8.90;4.10;;;;;;;4.00;100.00;99529.22;4849653;29;20515;-78
2024/04/06 02:53:13;;;;;;;9.20;4.73;;;;;;;3.89;100.00;99531.84;4849157;29;20092;-78
2024/04/06 02:55:40;;;;;;;6.87;4.20;;;;;;;3.84;100.00;99524.31;4871738;29;20048;-80
2024/04/06 02:58:08;;;;;;;5.97;4.23;;;;;;;3.82;100.00;99523.59;4898642;29;20051;-80
2024/04/06 03:00:37;;;;;;;7.43;4.07;;;;;;;3.96;100.00;99527.78;4948535;28;20096;-81
2024/04/06 03:03:04;;;;;;;6.43;3.93;;;;;;;3.97;100.00;99518.94;4959989;28;20046;-82
2024/04/06 03:05:32;;;;;;;5.10;3.70;;;;;;;4.10;100.00;99530.16;4959077;28;20498;-80
2024/04/06 03:07:58;;;;;;;7.17;4.20;;;;;;;4.16;100.00;99525.28;4901297;29;20557;-79
2024/04/06 03:10:24;;;;;;;6.10;3.97;;;;;;;4.31;100.00;99525.84;4921574;29;20082;-78
2024/04/06 03:12:51;;;;;;;7.70;4.10;;;;;;;4.40;100.00;99523.31;4935979;29;20409;-78
2024/04/06 03:15:17;;;;;;;5.47;3.30;;;;;;;4.61;100.00;99518.97;4920885;29;20046;-80
2024/04/06 03:17:44;;;;;;;6.67;3.60;;;;;;;4.91;100.00;99518.28;4905170;29;20070;-78
2024/04/06 03:20:10;;;;;;;7.70;3.73;;;;;;;5.01;100.00;99520.03;4934669;28;20157;-80
2024/04/06 03:22:36;;;;;;;9.03;4.10;;;;;;;5.08;100.00;99531.75;4920576;29;20051;-79
2024/04/06 03:25:02;;;;;;;7.80;4.63;;;;;;;4.99;100.00;99514.09;4914321;29;20062;-79
2024/04/06 03:27:32;;;;;;;10.00;4.20;;;;;;;4.88;100.00;99524.66;4948393;29;20052;-78
2024/04/06 03:29:58;;;;;;;7.87;4.70;;;;;;;4.69;100.00;99516.56;4948420;29;20166;-78
2024/04/06 03:32:27;;;;;;;6.83;4.60;;;;;;;4.82;100.00;99519.88;4948409;29;20055;-77
2024/04/06 03:34:53;;;;;;;6.90;4.67;;;;;;;4.73;100.00;99517.16;4916738;29;20502;-78
2024/04/06 03:37:20;;;;;;;6.17;4.13;;;;;;;4.84;100.00;99517.94;4933867;29;20051;-77
2024/04/06 03:39:46;;;;;;;7.87;5.10;;;;;;;4.83;100.00;99516.28;4932798;29;20474;-80
2024/04/06 03:42:12;;;;;;;8.87;4.97;;;;;;;4.80;100.00;99513.06;4916618;29;20065;-79
2024/04/06 03:44:39;;;;;;;6.80;5.17;;;;;;;4.79;100.00;99516.66;4893204;29;20424;-76
2024/04/06 03:47:05;;;;;;;7.07;5.10;;;;;;;4.79;100.00;99516.66;4879107;29;20170;-76
2024/04/06 03:49:31;;;;;;;10.07;5.60;;;;;;;4.71;100.00;99506.75;4847973;29;20550;-79
2024/04/06 03:51:57;;;;;;;8.57;5.80;;;;;;;4.61;100.00;99503.19;4832925;29;20120;-79
2024/04/06 03:54:23;;;;;;;11.57;5.77;;;;;;;4.51;100.00;99496.16;4882259;29;20079;-79
2024/04/06 03:56:53;;;;;;;8.03;5.57;;;;;;;4.64;100.00;99499.50;4858434;29;20148;-80
2024/04/06 03:59:20;;;;;;;8.87;5.40;;;;;;;4.60;100.00;99505.94;4861016;29;20087;-79
2024/04/06 04:01:49;;;;;;;8.50;5.83;;;;;;;4.40;100.00;99497.03;4891224;29;20053;-80
2024/04/06 04:04:18;;;;;;;11.93;6.40;;;;;;;4.43;100.00;99490.69;4860689;29;20053;-74
2024/04/06 04:06:44;;;;;;;11.43;6.20;;;;;;;4.43;100.00;99503.81;4892181;29;20056;-73
2024/04/06 04:09:15;;;;;;;8.03;5.60;;;;;;;4.52;100.00;99505.75;4881236;29;20055;-75
2024/04/06 04:11:43;;;;;;;10.20;5.97;;;;;;;4.57;100.00;99486.00;4882339;29;20416;-75
2024/04/06 04:14:09;;;;;;;9.40;5.87;;;;;;;4.55;100.00;99494.97;4882321;29;20482;-75
2024/04/06 04:16:36;;;;;;;14.13;7.43;;;;;;;4.43;100.00;99491.53;4970678;28;20068;-75
2024/04/06 04:19:09;;;;;;;11.47;6.70;;;;;;;4.39;100.00;99495.38;4975554;28;20121;-84
2024/04/06 04:21:37;;;;;;;10.00;6.23;;;;;;;4.57;100.00;99490.41;4940037;29;20055;-81
2024/04/06 04:24:05;;;;;;;12.40;6.97;;;;;;;4.42;100.00;99494.28;4939353;29;20387;-83
2024/04/06 04:26:31;;;;;;;11.60;7.10;;;;;;;4.42;100.00;99499.53;4889036;29;20056;-81
2024/04/06 04:29:01;;;;;;;15.70;7.83;;;;;;;4.42;100.00;99504.81;4920123;29;20086;-82
2024/04/06 04:31:29;;;;;;;19.25;9.45;;;;;;;4.32;100.00;99502.06;4920434;29;20043;-80
2024/04/06 04:33:55;;;;;;;19.13;7.40;;;;;;;4.33;100.00;99498.50;4905072;29;20055;-81
2024/04/06 04:36:21;;;;;;;13.17;8.17;;;;;;;4.39;100.00;99500.63;4904415;29;20119;-74
2024/04/06 04:38:48;;;;;;;13.23;7.70;;;;;;;4.41;100.00;99497.88;4919619;29;20051;-81
2024/04/06 04:41:14;;;;;;;15.63;8.10;;;;;;;4.44;100.00;99497.63;4935237;29;20147;-74
2024/04/06 04:43:42;;;;;;;15.97;7.90;;;;;;;4.59;100.00;99493.75;4950937;29;20435;-73
2024/04/06 04:46:09;;;;;;;10.30;6.63;;;;;;;4.59;100.00;99491.97;4951016;29;20067;-76
2024/04/06 04:48:53;;;;;;;11.83;6.47;;;;;;;4.84;100.00;99496.09;4920458;29;20055;-78
2024/04/06 04:51:23;;;;;;;11.40;7.03;;;;;;;4.73;100.00;99494.34;4921600;29;20051;-76
2024/04/06 04:53:50;;;;;;;12.40;7.28;;;;;;;4.71;100.00;99500.66;4936050;29;20057;-76
2024/04/06 04:56:17;;;;;;;13.60;7.40;;;;;;;4.79;100.00;99498.25;4951174;29;20055;-76
2024/04/06 04:58:44;;;;;;;9.37;6.30;;;;;;;5.02;100.00;99495.41;4951140;29;20060;-85
2024/04/06 05:01:10;;;;;;;12.63;7.27;;;;;;;4.94;100.00;99502.25;4943605;29;20458;-80
2024/04/06 05:03:37;;;;;;;10.00;6.97;;;;;;;5.01;100.00;99504.25;4919952;29;20063;-80
2024/04/06 05:06:04;;;;;;;9.70;6.60;;;;;;;5.00;100.00;99505.22;4965033;28;20051;-78
2024/04/06 05:08:36;;;;;;;11.63;7.67;;;;;;;5.33;100.00;99506.00;4922541;28;20565;-77
2024/04/06 05:11:03;;;;;;;11.60;6.87;;;;;;;5.42;100.00;99492.91;4954564;28;20162;-76
2024/04/06 05:13:29;;;;;;;10.63;6.80;;;;;;;5.63;100.00;99495.53;4938895;29;20442;-79
2024/04/06 05:15:57;;;;;;;13.50;8.13;;;;;;;5.67;100.00;99484.59;4954125;28;20055;-70
2024/04/06 05:18:23;;;;;;;14.67;7.77;;;;;;;5.59;100.00;99487.06;4970025;28;20054;-68
2024/04/06 05:20:53;;;;;;;10.17;7.03;;;;;;;5.91;100.00;99486.94;4952940;28;20062;-69
2024/04/06 05:23:20;;;;;;;12.68;8.27;;;;;;;5.97;100.00;99500.44;4937574;29;20098;-70
2024/04/06 05:25:47;;;;;;;12.60;8.03;;;;;;;6.04;100.00;99498.13;4987902;28;20058;-70
2024/04/06 05:28:17;;;;;;;14.10;8.10;;;;;;;6.17;100.00;99496.91;4976375;28;20093;-71
2024/04/06 05:30:44;;;;;;;13.87;8.70;;;;;;;6.10;100.00;99501.06;4997942;28;20038;-68
2024/04/06 05:33:10;;;;;;;12.93;8.40;;;;;;;6.26;100.00;99496.09;5050055;28;20372;-70
2024/04/06 05:35:37;;;;;;;12.23;8.03;;;;;;;6.23;100.00;99488.47;5052989;28;20066;-67
2024/04/06 05:38:04;;;;;;;12.27;8.53;;;;;;;6.21;100.00;99486.94;4987635;28;20044;-69
2024/04/06 05:40:31;;;;;;;11.40;7.33;;;;;;;6.29;100.00;99479.16;5036191;28;20128;-70
2024/04/06 05:42:57;;;;;;;16.20;8.03;;;;;;;6.32;100.00;99481.56;5036511;28;20041;-68
2024/04/06 05:45:22;;;;;;;17.20;9.97;;;;;;;6.34;100.00;99488.34;5053520;28;20102;-68
2024/04/06 05:47:50;;;;;;;16.60;9.20;;;;;;;6.17;100.00;99478.47;5034168;28;20052;-70
2024/04/06 05:50:15;;;;;;;14.60;9.47;;;;;;;6.17;100.00;99486.38;5033825;28;20139;-70
2024/04/06 05:52:41;;;;;;;14.50;9.73;;;;;;;6.06;100.00;99478.56;5050127;28;20736;-70
2024/04/06 05:55:07;;;;;;;15.90;10.70;;;;;;;5.98;100.00;99485.47;5049887;28;20036;-71
2024/04/06 05:57:33;;;;;;;14.07;9.83;;;;;;;5.98;100.00;99480.19;5033540;28;20041;-71
2024/04/06 05:59:58;;;;;;;15.13;10.23;;;;;;;5.98;100.00;99485.47;5034253;28;20129;-69
2024/04/06 06:02:24;;;;;;;19.13;9.97;;;;;;;5.92;100.00;99478.91;5050598;28;20118;-70
2024/04/06 06:04:50;;;;;;;17.50;9.63;;;;;;;6.14;100.00;99485.78;5035440;28;20052;-70
2024/04/06 06:07:17;;;;;;;17.43;9.20;;;;;;;6.28;100.00;99488.91;5019362;28;20037;-71
2024/04/06 06:09:44;;;;;;;13.50;9.67;;;;;;;6.46;100.00;99482.00;5035850;28;20105;-71
2024/04/06 06:12:09;;;;;;;17.87;9.80;;;;;;;6.67;100.00;99482.72;5053803;28;20048;-71
2024/04/06 06:14:35;;;;;;;15.03;8.73;;;;;;;6.96;100.00;99480.13;5036735;28;20037;-69
2024/04/06 06:17:01;;;;;;;15.57;9.40;;;;;;;7.01;100.00;99477.06;5036286;28;20109;-70
2024/04/06 06:19:27;;;;;;;11.90;8.77;;;;;;;7.08;100.00;99472.88;5052210;28;20045;-71
2024/04/06 06:21:53;;;;;;;15.73;9.73;;;;;;;7.27;100.00;99470.22;5018593;28;20056;-71
2024/04/06 06:24:18;;;;;;;12.60;8.68;;;;;;;7.29;100.00;99477.00;5018496;28;20056;-69
2024/04/06 06:26:44;;;;;;;12.48;8.75;;;;;;;7.34;100.00;99469.50;5034750;28;20127;-70
2024/04/06 06:29:10;;;;;;;13.77;8.95;;;;;;;7.34;100.00;99477.44;5051657;28;20045;-70
2024/04/06 06:31:36;;;;;;;15.35;9.32;;;;;;;7.43;100.00;99484.50;5033858;28;20045;-70
2024/04/06 06:34:02;;;;;;;11.85;7.57;;;;;;;7.56;100.00;99471.84;5017548;28;20060;-67
2024/04/06 06:36:27;;;;;;;12.70;8.07;;;;;;;7.38;100.00;99472.72;5015238;28;20144;-67
2024/04/06 06:38:55;;;;;;;13.45;7.80;;;;;;;7.30;100.00;99473.41;5006312;28;20053;-67
2024/04/06 06:41:21;;;;;;;15.45;8.82;;;;;;;7.45;100.00;99471.16;4992472;28;20064;-67
2024/04/06 06:43:47;;;;;;;21.20;10.07;;;;;;;7.33;100.00;99482.84;4975966;28;20481;-66
2024/04/06 06:46:14;;;;;;;15.27;9.60;;;;;;;7.27;100.00;99473.69;4993239;28;20146;-68
2024/04/06 06:48:39;;;;;;;14.43;9.48;;;;;;;7.51;100.00;99465.28;4993566;28;20066;-66
2024/04/06 06:51:07;;;;;;;24.02;10.30;;;;;;;7.56;100.00;99473.63;4993960;28;20041;-66
2024/04/06 06:53:32;;;;;;;15.07;9.52;;;;;;;7.57;100.00;99465.56;4994112;28;20034;-68
2024/04/06 06:55:58;;;;;;;12.68;8.75;;;;;;;7.53;100.00;99468.63;4977863;28;20050;-67
2024/04/06 06:58:24;;;;;;;12.38;8.55;;;;;;;7.38;100.00;99470.06;4978452;28;20060;-67
2024/04/06 07:00:50;;;;;;;13.30;9.10;;;;;;;7.30;100.00;99454.09;4962126;28;20145;-67
2024/04/06 07:03:15;;;;;;;12.93;7.65;;;;;;;7.69;100.00;99459.13;4978350;28;20030;-66
2024/04/06 07:05:41;;;;;;;12.95;8.07;;;;;;;7.55;100.00;99459.59;5009394;28;20123;-68
2024/04/06 07:08:07;;;;;;;15.85;9.73;;;;;;;7.45;100.00;99474.63;5013247;28;20040;-66
2024/04/06 07:10:38;;;;;;;16.50;10.13;;;;;;;7.36;100.00;99472.00;5013869;28;20053;-72
2024/04/06 07:13:04;;;;;;;14.55;9.73;;;;;;;7.01;100.00;99464.69;4998489;28;20047;-68
2024/04/06 07:15:29;;;;;;;14.68;9.63;;;;;;;7.03;100.00;99468.00;5038338;28;20132;-66
2024/04/06 07:17:55;;;;;;;16.27;10.18;;;;;;;6.94;100.00;99463.56;5031232;28;20107;-67
2024/04/06 07:20:21;;;;;;;14.88;10.38;;;;;;;6.92;100.00;99459.41;5031014;28;20488;-66
2024/04/06 07:22:47;;;;;;;13.30;9.02;;;;;;;6.85;100.00;99457.34;5030939;28;20065;-68
2024/04/06 07:25:13;;;;;;;21.23;10.30;;;;;;;7.03;100.00;99446.06;5032022;28;20072;-68
2024/04/06 07:27:38;;;;;;;19.33;9.90;;;;;;;7.12;100.00;99453.16;5032081;28;20045;-69
2024/04/06 07:30:05;;;;;;;16.55;9.65;;;;;;;7.44;100.00;99445.72;5047971;28;20064;-70
2024/04/06 07:32:31;;;;;;;15.85;8.65;;;;;;;7.58;100.00;99451.38;5031577;28;20049;-71
2024/04/06 07:34:57;;;;;;;13.95;8.13;;;;;;;7.74;100.00;99456.03;4998074;28;20383;-70
2024/04/06 07:37:23;;;;;;;20.20;10.07;;;;;;;7.72;100.00;99450.09;5030992;28;20476;-71
2024/04/06 07:39:49;;;;;;;18.30;10.15;;;;;;;7.94;100.00;99455.00;5014108;28;20548;-69
2024/04/06 07:42:15;;;;;;;19.33;10.68;;;;;;;8.13;100.00;99442.50;4993466;28;20090;-71
2024/04/06 07:44:40;;;;;;;18.48;10.95;;;;;;;8.14;100.00;99448.63;4980654;28;20085;-69
2024/04/06 07:47:07;;;;;;;17.42;9.98;;;;;;;8.17;100.00;99448.34;5020884;28;20068;-68
2024/04/06 07:49:33;;;;;;;18.20;9.57;;;;;;;8.42;100.00;99452.97;4985078;28;20049;-69
2024/04/06 07:51:59;;;;;;;13.65;9.38;;;;;;;8.41;100.00;99440.72;5022565;28;20051;-69
2024/04/06 07:54:24;;;;;;;12.68;7.45;;;;;;;8.55;100.00;99443.69;5007588;28;20071;-68
2024/04/06 07:56:51;;;;;;;11.70;7.22;;;;;;;8.85;100.00;99446.94;5006058;28;20500;-68
2024/04/06 07:59:17;;;;;;;14.13;8.13;;;;;;;8.94;100.00;99443.38;5008517;28;20046;-67
2024/04/06 08:01:43;;;;;;;11.45;7.70;;;;;;;8.93;100.00;99437.28;4992323;28;20049;-67
2024/04/06 08:04:10;;;;;;;13.45;7.53;;;;;;;9.30;100.00;99440.53;5022099;28;20111;-69
2024/04/06 08:06:36;;;;;;;11.38;7.53;;;;;;;9.35;100.00;99427.66;4990685;28;20037;-75
2024/04/06 08:09:04;;;;;;;11.10;8.00;;;;;;;9.61;100.00;99433.78;5015798;28;20047;-68
2024/04/06 08:11:30;;;;;;;15.30;8.35;;;;;;;9.47;100.00;99437.00;5000500;28;20045;-68
2024/04/06 08:13:57;;;;;;;11.25;7.10;;;;;;;9.93;100.00;99438.44;5017327;28;20080;-70
2024/04/06 08:16:24;;;;;;;13.55;7.63;;;;;;;10.03;100.00;99423.22;5017186;28;20544;-69
2024/04/06 08:18:51;;;;;;;15.57;8.20;;;;;;;9.94;100.00;99440.09;4954798;29;20079;-69
2024/04/06 08:21:17;;;;;;;11.55;7.38;;;;;;;9.75;100.00;99424.41;4901133;29;20139;-70
2024/04/06 08:23:43;;;;;;;9.73;6.22;;;;;;;10.19;100.00;99421.47;4869841;29;20060;-73
2024/04/06 08:26:09;;;;;;;11.50;6.90;;;;;;;10.34;100.00;99421.69;4885210;29;20058;-70
2024/04/06 08:28:35;;;;;;;8.82;6.53;;;;;;;10.83;100.00;99420.81;4885586;29;20052;-69
2024/04/06 08:31:01;;;;;;;16.77;7.75;;;;;;;10.97;100.00;99414.00;4884999;29;20127;-76
2024/04/06 08:33:27;;;;;;;12.30;7.90;;;;;;;11.10;97.76;99404.53;4885082;29;20476;-71
2024/04/06 08:36:02;;;;;;;10.32;7.72;;;;;;;11.23;96.86;99407.50;4900657;29;20116;-72
2024/04/06 08:38:27;;;;;;;11.02;6.78;;;;;;;10.82;99.86;99411.19;4905387;29;20058;-71
2024/04/06 08:40:53;;;;;;;10.52;6.45;;;;;;;10.82;100.00;99410.34;4917863;29;20044;-73
2024/04/06 08:43:22;;;;;;;11.70;7.53;;;;;;;10.74;100.00;99407.66;4882237;29;20402;-73
2024/04/06 08:45:50;;;;;;;13.63;6.97;;;;;;;10.86;100.00;99401.03;4902913;29;20052;-72
2024/04/06 08:48:16;;;;;;;9.07;6.30;;;;;;;11.50;98.36;99401.81;4896380;29;20056;-71
2024/04/06 08:50:42;;;;;;;10.50;6.47;;;;;;;11.69;93.04;99411.28;4951741;28;20137;-71
2024/04/06 08:53:08;;;;;;;10.13;6.22;;;;;;;11.61;93.95;99392.63;4957629;28;20054;-69
2024/04/06 08:55:34;;;;;;;8.00;6.03;;;;;;;11.76;89.89;99404.28;4935628;28;20107;-73
2024/04/06 08:57:59;;;;;;;10.93;7.70;;;;;;;11.67;88.33;99411.44;4995837;28;20119;-70
2024/04/06 09:00:27;;;;;;;9.85;6.60;;;;;;;11.57;90.77;99396.66;5042700;28;20034;-72
2024/04/06 09:02:53;;;;;;;13.88;7.07;;;;;;;11.07;92.79;99394.22;5038605;28;20482;-71
2024/04/06 09:05:19;;;;;;;10.18;7.25;;;;;;;10.78;96.24;99415.13;5012709;28;20056;-73
2024/04/06 09:07:48;;;;;;;9.85;7.03;;;;;;;10.70;100.00;99401.84;5041074;28;20033;-72
2024/04/06 09:10:15;;;;;;;10.77;7.03;;;;;;;10.45;100.00;99396.66;5010213;28;20142;-72
2024/04/06 09:12:44;;;;;;;13.30;8.40;;;;;;;10.34;100.00;99411.09;5019693;28;20135;-75
2024/04/06 09:15:15;;;;;;;15.38;8.30;;;;;;;10.23;100.00;99412.22;5024998;28;20136;-73
2024/04/06 09:17:42;;;;;;;14.77;8.07;;;;;;;9.98;100.00;99404.28;5030491;28;20040;-71
2024/04/06 09:20:08;;;;;;;14.00;7.78;;;;;;;9.74;100.00;99405.03;5011435;28;20037;-73
2024/04/06 09:22:34;;;;;;;12.23;8.13;;;;;;;9.54;100.00;99402.75;4995357;28;20103;-75
2024/04/06 09:25:07;;;;;;;14.80;8.65;;;;;;;9.56;100.00;99400.78;5019089;28;20064;-72
2024/04/06 09:27:33;;;;;;;17.83;7.50;;;;;;;9.47;100.00;99399.88;5016386;28;20139;-73
2024/04/06 09:29:59;;;;;;;10.50;6.53;;;;;;;9.57;100.00;99390.03;5027448;28;20451;-72
2024/04/06 09:32:29;;;;;;;14.35;7.53;;;;;;;9.64;100.00;99392.88;5010984;28;20044;-71
2024/04/06 09:34:55;;;;;;;10.18;7.07;;;;;;;9.40;100.00;99388.25;5027386;28;20094;-69
2024/04/06 09:37:28;;;;;;;11.38;7.45;;;;;;;9.56;100.00;99393.63;5043867;28;20052;-74
2024/04/06 09:39:56;;;;;;;12.52;7.95;;;;;;;9.63;100.00;99385.91;5043974;28;20049;-72
2024/04/06 09:42:22;;;;;;;13.07;8.52;;;;;;;9.43;100.00;99387.09;5044288;28;20118;-78
2024/04/06 09:44:49;;;;;;;15.40;9.07;;;;;;;9.59;100.00;99368.66;5043797;28;20045;-74
2024/04/06 09:47:18;;;;;;;11.57;7.35;;;;;;;10.13;100.00;99386.81;5016809;28;20492;-71
2024/04/06 09:49:52;;;;;;;11.13;7.43;;;;;;;10.24;100.00;99383.84;5027260;28;20072;-80
2024/04/06 09:52:20;;;;;;;15.88;8.68;;;;;;;10.04;100.00;99395.72;5042240;28;20037;-71
2024/04/06 09:54:48;;;;;;;11.25;7.20;;;;;;;9.93;100.00;99388.84;4990030;28;20045;-72
2024/04/06 09:57:14;;;;;;;11.70;7.55;;;;;;;9.83;100.00;99384.66;4979815;28;20054;-69
2024/04/06 09:59:41;;;;;;;13.93;7.97;;;;;;;9.90;100.00;99381.22;4981009;28;20061;-68
2024/04/06 10:02:07;;;;;;;17.15;8.77;;;;;;;9.81;100.00;99376.06;4998473;28;20048;-76
2024/04/06 10:04:36;;;;;;;12.68;7.68;;;;;;;10.02;100.00;99379.91;5020648;28;20149;-74
2024/04/06 10:07:03;;;;;;;11.57;7.97;;;;;;;10.08;100.00;99375.84;5006339;28;20050;-75
2024/04/06 10:09:30;;;;;;;14.73;9.02;;;;;;;10.03;100.00;99386.91;4978675;28;20057;-72
2024/04/06 10:11:58;;;;;;;16.60;8.15;;;;;;;9.87;100.00;99376.22;5005484;28;20376;-74
2024/04/06 10:14:28;;;;;;;12.43;7.97;;;;;;;9.81;100.00;99368.09;4998021;28;20380;-79
2024/04/06 10:17:08;;;;;;;10.70;7.25;;;;;;;10.23;100.00;99372.41;5028109;28;20049;-77
2024/04/06 10:19:35;;;;;;;16.88;7.22;;;;;;;10.25;100.00;99362.44;4981532;28;20049;-71
2024/04/06 10:22:06;;;;;;;11.63;7.20;;;;;;;10.47;100.00;99368.16;4998157;28;20111;-73
2024/04/06 10:24:34;;;;;;;15.80;9.35;;;;;;;10.44;100.00;99371.13;4975253;28;20069;-72
2024/04/06 10:27:00;;;;;;;15.98;8.13;;;;;;;10.61;100.00;99360.34;4969448;28;20155;-73
2024/04/06 10:29:31;;;;;;;15.20;7.80;;;;;;;10.64;100.00;99364.50;5001175;28;20053;-73
2024/04/06 10:31:58;;;;;;;13.90;7.95;;;;;;;10.64;100.00;99361.84;4938475;29;20051;-73
2024/04/06 10:34:25;;;;;;;10.90;7.18;;;;;;;10.74;100.00;99362.50;4952760;28;20079;-73
2024/04/06 10:36:51;;;;;;;12.27;7.30;;;;;;;10.88;100.00;99368.00;4933815;29;20133;-73
2024/04/06 10:39:17;;;;;;;9.77;5.82;;;;;;;11.08;100.00;99364.00;4950514;28;20115;-73
2024/04/06 10:41:43;;;;;;;11.52;6.38;;;;;;;11.29;100.00;99374.09;4951659;28;20051;-74
2024/04/06 10:44:11;;;;;;;9.63;6.72;;;;;;;11.04;100.00;99356.53;4949038;28;20059;-69
2024/04/06 10:46:38;;;;;;;9.73;6.20;;;;;;;11.21;100.00;99368.81;4920159;28;20047;-73
2024/04/06 10:49:13;;;;;;;9.93;6.85;;;;;;;11.02;100.00;99361.19;4904197;29;20058;-73
2024/04/06 10:51:42;;;;;;;13.20;7.57;;;;;;;10.96;100.00;99362.66;4952369;28;20128;-73
2024/04/06 10:54:15;;;;;;;14.05;7.40;;;;;;;10.70;100.00;99362.00;4933466;28;20039;-71
2024/04/06 10:56:44;;;;;;;9.70;6.70;;;;;;;10.66;100.00;99354.53;4950191;28;20054;-73
2024/04/06 10:59:12;;;;;;;13.02;7.63;;;;;;;10.66;100.00;99346.56;4911735;29;20047;-73
2024/04/06 11:01:51;;;;;;;11.68;7.13;;;;;;;11.08;100.00;99345.41;4934992;28;20414;-80
2024/04/06 11:04:19;;;;;;;13.07;6.97;;;;;;;10.97;100.00;99332.47;4900252;29;20055;-77
2024/04/06 11:06:54;;;;;;;8.93;6.70;;;;;;;11.14;100.00;99349.22;4912607;29;20143;-72
2024/04/06 11:09:24;;;;;;;14.13;8.00;;;;;;;11.08;100.00;99348.06;4895111;29;20055;-73
2024/04/06 11:11:54;;;;;;;12.90;8.32;;;;;;;10.73;100.00;99340.41;4941567;29;20506;-75
2024/04/06 11:14:25;;;;;;;12.68;7.20;;;;;;;10.73;100.00;99345.72;4892836;29;20106;-73
2024/04/06 11:16:55;;;;;;;9.15;6.15;;;;;;;10.92;100.00;99344.56;4909786;29;20066;-69
2024/04/06 11:22:56;;;;;;;13.70;7.75;;;;;;;11.19;100.00;99346.88;4804150;29;20054;-70
2024/04/06 11:25:23;;;;;;;13.18;7.50;;;;;;;11.34;100.00;99343.38;4804918;29;20153;-67
2024/04/06 11:27:50;;;;;;;10.43;7.07;;;;;;;11.50;100.00;99347.81;4804932;29;20046;-68
2024/04/06 11:30:17;;;;;;;12.98;7.00;;;;;;;11.49;100.00;99346.97;4810695;29;20062;-71